• Join FlightAware (Why Join?)
  • Login
  • US Flag 
02:00AM EST


 

Airport Tracker/Info


-or-


 

Live Flight TrackerFlight Track Log ✈ AAY860 ✈ 05-Jul-2014 ✈ KPIE - KLEX

Flight Track Log - Related Links

Times and Time Zones

All times are in EDT time to prevent confusion due to time zone crossing. See the AAY860 flight status page for this flight to view local times or setup timezone preferences in your user account.

Time Position Orientation Groundspeed Altitude Reporting Facility
EDT Latitude Longitude Course Direction KTS MPH feet Rate Location/Type
06:21AM 27.8833 -82.6833 180° South 165 190 1,000  Level Tampa TRACON
06:21AM 27.8500 -82.6833 180° South 179 206 2,200 1,920 Climbing Tampa TRACON
06:23AM 27.8753 -82.7342 299° West 233 268 5,300 2,160 Climbing Miami Center
06:24AM 27.9494 -82.7200 10° North 265 305 7,800 2,520 Climbing Miami Center
06:25AM 28.0297 -82.7058 North 285 328 10,400 1,920 Climbing Miami Center
06:26AM 28.1214 -82.7006 North 315 362 11,700 1,560 Climbing Miami Center
06:26AM 28.1894 -82.6994 North 332 382 12,900 2,340 Climbing Jacksonville Center
06:27AM 28.3000 -82.6944 North 366 421 15,400 2,280 Climbing Jacksonville Center
06:28AM 28.4169 -82.6847 North 395 455 17,500 2,100 Climbing Jacksonville Center
06:29AM 28.5358 -82.6822 North 412 474 19,600 1,800 Climbing Jacksonville Center
06:30AM 28.6569 -82.6750 North 423 487 21,100 1,500 Climbing Jacksonville Center
06:31AM 28.7800 -82.6653 North 428 493 22,600 1,500 Climbing Jacksonville Center
06:32AM 28.9072 -82.6578 North 444 511 24,100 1,500 Climbing Jacksonville Center
06:33AM 29.0408 -82.6503 North 456 525 25,700 1,860 Climbing Jacksonville Center
06:34AM 29.1703 -82.6428 North 463 533 27,900 1,800 Climbing Jacksonville Center
06:35AM 29.2975 -82.6353 North 458 527 29,300 1,260 Climbing Jacksonville Center
06:36AM 29.4228 -82.6278 North 458 527 30,500 1,200 Climbing Jacksonville Center
06:37AM 29.5522 -82.6206 North 458 527 31,700 1,080 Climbing Jacksonville Center
06:38AM 29.6817 -82.6128 North 458 527 32,700 600 Climbing Jacksonville Center
06:39AM 29.8089 -82.6053 North 458 527 32,900 120 Climbing Jacksonville Center
06:40AM 29.9383 -82.5978 North 458 527 33,000  Climbing Jacksonville Center
06:41AM 30.0533 -82.5975 360° North 458 527 32,900 -60 Descending Jacksonville Center
06:42AM 30.1953 -82.5897 North 458 527 32,900  Level Jacksonville Center
06:43AM 30.3225 -82.5822 North 458 527 32,900  Level Jacksonville Center
06:44AM 30.4497 -82.5744 North 458 527 33,000  Climbing Jacksonville Center
06:45AM 30.5792 -82.5669 North 458 527 32,900 -60 Descending Jacksonville Center
06:46AM 30.7067 -82.5592 North 458 527 32,900  Level Jacksonville Center
06:47AM 30.8339 -82.5514 North 458 527 32,900  Level Jacksonville Center
06:48AM 30.9633 -82.5436 North 458 527 32,900  Level Jacksonville Center
06:49AM 31.0886 -82.5358 North 458 527 32,900  Level Jacksonville Center
06:50AM 31.2181 -82.5306 North 458 527 32,900  Level Jacksonville Center
06:51AM 31.3433 -82.5228 North 458 527 32,900  Level Jacksonville Center
06:52AM 31.4811 -82.5100 North 458 527 33,000  Climbing Jacksonville Center
06:53AM 31.6044 -82.5242 354° North 451 519 33,000  Level Jacksonville Center
06:54AM 31.7256 -82.5678 343° North 451 519 33,000  Level Jacksonville Center
06:56AM 31.8636 -82.6181 343° North 455 524 33,000  Level Atlanta Center
06:57AM 31.9850 -82.6553 345° North 455 524 33,000  Level Atlanta Center
06:58AM 32.1067 -82.6953 344° North 455 524 33,000  Level Atlanta Center
06:59AM 32.2281 -82.7375 344° North 455 524 33,000  Level Atlanta Center
07:00AM 32.3475 -82.7775 344° North 455 524 33,000  Level Atlanta Center
07:01AM 32.4689 -82.8203 343° North 455 524 33,000  Level Atlanta Center
07:02AM 32.5864 -82.8581 345° North 449 517 33,000  Level Atlanta Center
07:03AM 32.7097 -82.9008 344° North 444 511 33,000  Level Atlanta Center
07:04AM 32.8269 -82.9414 344° North 444 511 33,000 360 Level Atlanta Center
07:05AM 32.9486 -82.9819 344° North 444 511 33,800 480 Climbing Atlanta Center
07:06AM 33.0700 -83.0225 344° North 444 511 34,000 60 Climbing Atlanta Center
07:07AM 33.1892 -83.0633 344° North 444 511 34,000  Level Atlanta Center
07:08AM 33.3044 -83.1042 344° North 438 504 34,000  Level Atlanta Center
07:09AM 33.4236 -83.1453 344° North 438 504 34,000  Level Atlanta Center
07:10AM 33.5408 -83.1839 345° North 438 504 34,000  Level Atlanta Center
07:11AM 33.6642 -83.2253 344° North 438 504 34,000  Level Atlanta Center
07:12AM 33.7833 -83.2664 344° North 443 510 34,000  Level Atlanta Center
07:13AM 33.9047 -83.3106 343° North 443 510 34,000  Level Atlanta Center
07:14AM 34.0261 -83.3494 345° North 443 510 34,000  Level Atlanta Center
07:15AM 34.1472 -83.3811 348° North 443 510 34,000  Level Atlanta Center
07:16AM 34.2831 -83.4203 347° North 448 516 34,000  Level Atlanta Center
07:17AM 34.4064 -83.4547 347° North 448 516 34,000  Level Atlanta Center
07:18AM 34.5256 -83.4892 347° North 448 516 34,000  Level Atlanta Center
07:19AM 34.6467 -83.5261 346° North 448 516 34,000  Level Atlanta Center
07:20AM 34.7533 -83.5558 347° North 438 504 34,000  Level Atlanta Center
07:21AM 34.8892 -83.5931 347° North 443 510 34,000  Level Atlanta Center
07:22AM 35.0061 -83.6306 345° North 438 504 34,000 -300 Level Atlanta Center
07:23AM 35.1231 -83.6656 346° North 433 498 33,500 -780 Descending Atlanta Center
07:24AM 35.2464 -83.7031 346° North 433 498 32,500 -1,020 Descending Atlanta Center
07:25AM 35.3633 -83.7408 345° North 433 498 31,500 -960 Descending Atlanta Center
07:26AM 35.4864 -83.7761 347° North 433 498 30,600 -780 Descending Atlanta Center
07:27AM 35.6033 -83.8114 346° North 433 498 30,000 -300 Descending Atlanta Center
07:28AM 35.7222 -83.8494 345° North 428 493 30,000 -360 Level Atlanta Center
07:29AM 35.8414 -83.8875 345° North 428 493 29,300 -900 Descending Atlanta Center
07:30AM 35.9603 -83.9233 346° North 433 498 28,200 -1,140 Descending Atlanta Center
07:32AM 36.2467 -83.9906 349° North 444 511 25,600 -1,140 Descending Indianapolis Center
07:33AM 36.3628 -84.0217 348° North 436 502 24,500 -840 Descending Indianapolis Center
07:34AM 36.4789 -84.0519 348° North 434 499 24,000 -300 Descending Indianapolis Center
07:35AM 36.5808 -84.0789 348° North 429 494 24,000  Level Indianapolis Center
07:36AM 36.7167 -84.1181 347° North 429 494 24,000 -360 Level Indianapolis Center
07:37AM 36.8236 -84.1472 348° North 405 466 23,300 -1,440 Descending Indianapolis Center
07:38AM 36.9294 -84.1772 347° North 393 452 21,200 -2,040 Descending Indianapolis Center
07:39AM 37.0353 -84.2067 347° North 390 449 19,200 -1,800 Descending Indianapolis Center
07:40AM 37.1361 -84.2350 347° North 377 434 17,600 -1,920 Descending Indianapolis Center
07:41AM 37.2322 -84.2622 347° North 358 412 15,400 -2,160 Descending Indianapolis Center
07:42AM 37.3253 -84.2886 347° North 350 403 13,300 -1,920 Descending Indianapolis Center
07:43AM 37.4156 -84.3136 348° North 337 388 11,500 -1,140 Descending Indianapolis Center
07:44AM 37.4992 -84.3389 347° North 317 365 11,000 -960 Descending Indianapolis Center
07:45AM 37.5697 -84.3744 338° Northwest 285 328 9,600 -1,560 Descending Indianapolis Center
07:46AM 37.6386 -84.4225 331° Northwest 283 326 7,900 -1,560 Descending Indianapolis Center
07:47AM 37.7061 -84.4689 331° Northwest 279 321 6,500 -1,320 Descending Indianapolis Center
07:48AM 37.7733 -84.5131 333° Northwest 276 318 5,300 -1,380 Descending Indianapolis Center
07:49AM 37.8381 -84.5594 330° Northwest 272 313 3,700 -1,140 Descending Indianapolis Center
07:50AM 37.9025 -84.5983 335° Northwest 263 303 3,100 -600 Descending Indianapolis Center
07:51AM 37.9519 -84.6303 333° Northwest 226 260 2,600 -720 Descending Indianapolis Center
07:52AM 37.9981 -84.6447 346° North 175 201 1,700 -660 Descending Indianapolis Center
07:53AM 38.0239 -84.6178 39° Northeast 161 185 1,300 -420 Descending Indianapolis Center